Time;durP1;ratioP1;P1;durP2;ratioP2;P2;SDS_P1;SDS_P2;PMS_P1;PMS_P2;Temp;Humidity;BMP_temperature;BMP_pressure;BME280_temperature;BME280_humidity;BME280_pressure;Samples;Min_cycle;Max_cycle;Signal;HPM_P1;HPM_P2
2022/03/29 00:01:24;;;;;;;;;;;;;;;;;;5033649;28;20335;-47
2022/03/29 00:03:50;;;;;;;;;;;;;;;;;;5033898;28;19923;-48
2022/03/29 00:06:16;;;;;;;;;;;;;;;;;;5033782;28;19913;-47
2022/03/29 00:08:42;;;;;;;;;;;;;;;;;;5033721;28;19913;-46
2022/03/29 00:11:08;;;;;;;;;;;;;;;;;;5033785;28;20208;-49
2022/03/29 00:13:34;;;;;;;;;;;;;;;;;;5033725;28;20008;-50
2022/03/29 00:15:59;;;;;;;;;;;;;;;;;;5033962;28;19913;-48
2022/03/29 00:18:25;;;;;;;;;;;;;;;;;;5033565;28;20382;-50
2022/03/29 00:20:51;;;;;;;;;;;;;;;;;;5033560;28;19909;-48
2022/03/29 00:23:18;;;;;;;;;;;;;;;;;;5033525;28;20008;-50
2022/03/29 00:25:44;;;;;;;;;;;;;;;;;;5033514;28;19905;-47
2022/03/29 00:28:10;;;;;;;;;;;;;;;;;;5033384;28;19974;-46
2022/03/29 00:30:36;;;;;;;;;;;;;;;;;;5033359;28;19909;-47
2022/03/29 00:33:02;;;;;;;;;;;;;;;;;;5033393;28;19912;-46
2022/03/29 00:35:28;;;;;;;;;;;;;;;;;;5033364;28;20070;-48
2022/03/29 00:37:54;;;;;;;;;;;;;;;;;;5033287;28;19953;-46
2022/03/29 00:40:20;;;;;;;;;;;;;;;;;;5033295;28;19915;-46
2022/03/29 00:42:46;;;;;;;;;;;;;;;;;;5033214;28;19909;-47
2022/03/29 00:45:12;;;;;;;;;;;;;;;;;;5033455;28;19905;-47
2022/03/29 00:47:38;;;;;;;;;;;;;;;;;;5033040;28;19909;-47
2022/03/29 00:50:03;;;;;;;;;;;;;;;;;;5033069;28;20024;-46
2022/03/29 00:52:29;;;;;;;;;;;;;;;;;;5033187;28;19963;-47
2022/03/29 00:54:55;;;;;;;;;;;;;;;;;;5033048;28;19905;-48
2022/03/29 00:57:21;;;;;;;;;;;;;;;;;;5033327;28;19905;-47
2022/03/29 00:59:47;;;;;;;;;;;;;;;;;;5032950;28;20427;-47
2022/03/29 01:02:13;;;;;;;;;;;;;;;;;;5032686;28;19924;-47
2022/03/29 01:04:39;;;;;;;;;;;;;;;;;;5032890;28;19959;-47
2022/03/29 01:07:05;;;;;;;;;;;;;;;;;;5032897;28;19912;-47
2022/03/29 01:09:31;;;;;;;;;;;;;;;;;;5032223;28;19913;-47
2022/03/29 01:11:57;;;;;;;;;;;;;;;;;;5032870;28;19912;-47
2022/03/29 01:14:23;;;;;;;;;;;;;;;;;;5032786;28;19905;-48
2022/03/29 01:19:33;;;;;;;;;;;;;;;;;;5032730;28;19988;-48
2022/03/29 01:21:59;;;;;;;;;;;;;;;;;;5032692;28;20371;-46
2022/03/29 01:24:28;;;;;;;;;;;;;;;;;;5032941;28;19912;-46
2022/03/29 01:26:54;;;;;;;;;;;;;;;;;;5032697;28;20354;-47
2022/03/29 01:29:20;;;;;;;;;;;;;;;;;;5032650;28;20020;-46
2022/03/29 01:31:45;;;;;;;;;;;;;;;;;;5032833;28;19996;-46
2022/03/29 01:34:11;;;;;;;;;;;;;;;;;;5032640;28;19905;-47
2022/03/29 01:36:37;;;;;;;;;;;;;;;;;;5032599;28;19948;-47
2022/03/29 01:39:03;;;;;;;;;;;;;;;;;;5032541;28;19912;-46
2022/03/29 01:41:30;;;;;;;;;;;;;;;;;;5032614;28;20367;-47
2022/03/29 01:43:56;;;;;;;;;;;;;;;;;;5032795;28;19905;-47
2022/03/29 01:46:22;;;;;;;;;;;;;;;;;;5032579;28;20260;-47
2022/03/29 01:48:48;;;;;;;;;;;;;;;;;;5032466;28;19923;-47
2022/03/29 01:51:14;;;;;;;;;;;;;;;;;;5032543;28;19905;-49
2022/03/29 01:53:40;;;;;;;;;;;;;;;;;;5032712;28;20411;-48
2022/03/29 01:56:06;;;;;;;;;;;;;;;;;;5032949;28;19912;-49
2022/03/29 01:58:31;;;;;;;;;;;;;;;;;;5032664;28;19967;-49
2022/03/29 02:00:58;;;;;;;;;;;;;;;;;;5032962;28;19913;-48
2022/03/29 02:03:23;;;;;;;;;;;;;;;;;;5032934;28;19917;-49
2022/03/29 02:05:49;;;;;;;;;;;;;;;;;;5032791;28;19932;-48
2022/03/29 02:08:16;;;;;;;;;;;;;;;;;;5032840;28;19917;-48
2022/03/29 02:10:42;;;;;;;;;;;;;;;;;;5032783;28;19979;-48
2022/03/29 02:13:09;;;;;;;;;;;;;;;;;;5032915;28;19905;-48
2022/03/29 02:15:35;;;;;;;;;;;;;;;;;;5032724;28;19905;-48
2022/03/29 02:18:01;;;;;;;;;;;;;;;;;;5032610;28;19912;-48
2022/03/29 02:20:26;;;;;;;;;;;;;;;;;;5033973;28;19905;-49
2022/03/29 02:22:52;;;;;;;;;;;;;;;;;;5036461;28;19978;-49
2022/03/29 02:25:18;;;;;;;;;;;;;;;;;;5036456;28;19951;-47
2022/03/29 02:27:44;;;;;;;;;;;;;;;;;;5036050;28;19999;-47
2022/03/29 02:30:10;;;;;;;;;;;;;;;;;;5035991;28;19935;-47
2022/03/29 02:32:36;;;;;;;;;;;;;;;;;;5035696;28;20355;-47
2022/03/29 02:35:02;;;;;;;;;;;;;;;;;;5035533;28;19905;-46
2022/03/29 02:37:28;;;;;;;;;;;;;;;;;;5035563;28;19912;-47
2022/03/29 02:39:54;;;;;;;;;;;;;;;;;;5035505;28;20428;-47
2022/03/29 02:42:20;;;;;;;;;;;;;;;;;;5035549;28;19909;-47
2022/03/29 02:44:46;;;;;;;;;;;;;;;;;;5035478;28;19994;-47
2022/03/29 02:47:12;;;;;;;;;;;;;;;;;;5035375;28;20117;-47
2022/03/29 02:49:38;;;;;;;;;;;;;;;;;;5035480;28;20099;-47
2022/03/29 02:52:04;;;;;;;;;;;;;;;;;;5035216;28;19950;-47
2022/03/29 02:54:30;;;;;;;;;;;;;;;;;;5035240;28;19999;-47
2022/03/29 02:56:56;;;;;;;;;;;;;;;;;;5035166;28;20351;-47
2022/03/29 02:59:22;;;;;;;;;;;;;;;;;;5035254;28;19912;-47
2022/03/29 03:01:48;;;;;;;;;;;;;;;;;;5034936;28;19909;-46
2022/03/29 03:04:14;;;;;;;;;;;;;;;;;;5035089;28;19909;-52
2022/03/29 03:06:40;;;;;;;;;;;;;;;;;;5035016;28;20386;-46
2022/03/29 03:09:06;;;;;;;;;;;;;;;;;;5034852;28;20000;-46
2022/03/29 03:11:32;;;;;;;;;;;;;;;;;;5034918;28;20350;-46
2022/03/29 03:13:58;;;;;;;;;;;;;;;;;;5034758;28;19905;-46
2022/03/29 03:16:24;;;;;;;;;;;;;;;;;;5034844;28;19948;-46
2022/03/29 03:18:50;;;;;;;;;;;;;;;;;;5035088;28;20201;-47
2022/03/29 03:21:16;;;;;;;;;;;;;;;;;;5034731;28;20371;-47
2022/03/29 03:23:42;;;;;;;;;;;;;;;;;;5034692;28;19905;-46
2022/03/29 03:26:07;;;;;;;;;;;;;;;;;;5034557;28;20382;-46
2022/03/29 03:28:33;;;;;;;;;;;;;;;;;;5034504;28;19920;-47
2022/03/29 03:30:59;;;;;;;;;;;;;;;;;;5034236;28;19911;-46
2022/03/29 03:33:25;;;;;;;;;;;;;;;;;;5033795;28;19911;-47
2022/03/29 03:35:51;;;;;;;;;;;;;;;;;;5034748;28;19963;-47
2022/03/29 03:38:17;;;;;;;;;;;;;;;;;;5034767;28;19905;-47
2022/03/29 03:40:43;;;;;;;;;;;;;;;;;;5034368;28;19905;-48
2022/03/29 03:43:09;;;;;;;;;;;;;;;;;;5034363;28;19992;-47
2022/03/29 03:45:35;;;;;;;;;;;;;;;;;;5034491;28;19912;-47
2022/03/29 03:48:01;;;;;;;;;;;;;;;;;;5034132;28;19909;-48
2022/03/29 03:50:27;;;;;;;;;;;;;;;;;;5034162;28;19999;-46
2022/03/29 03:52:54;;;;;;;;;;;;;;;;;;5034349;28;20038;-47
2022/03/29 03:55:20;;;;;;;;;;;;;;;;;;5034134;28;20332;-47
2022/03/29 03:57:46;;;;;;;;;;;;;;;;;;5034081;28;19959;-46
2022/03/29 04:00:12;;;;;;;;;;;;;;;;;;5033931;28;19905;-47
2022/03/29 04:02:37;;;;;;;;;;;;;;;;;;5033596;28;20429;-46
2022/03/29 04:05:03;;;;;;;;;;;;;;;;;;5033864;28;19912;-47
2022/03/29 04:07:29;;;;;;;;;;;;;;;;;;5033795;28;19913;-47
2022/03/29 04:09:55;;;;;;;;;;;;;;;;;;5034026;28;19958;-46
2022/03/29 04:12:21;;;;;;;;;;;;;;;;;;5033896;28;19912;-47
2022/03/29 04:14:47;;;;;;;;;;;;;;;;;;5033639;28;19953;-47
2022/03/29 04:17:14;;;;;;;;;;;;;;;;;;5033590;28;19921;-59
2022/03/29 04:19:40;;;;;;;;;;;;;;;;;;5033595;28;20001;-59
2022/03/29 04:22:06;;;;;;;;;;;;;;;;;;5033802;28;19905;-59
2022/03/29 04:24:32;;;;;;;;;;;;;;;;;;5033495;28;19905;-59
2022/03/29 04:26:58;;;;;;;;;;;;;;;;;;5033420;28;19911;-59
2022/03/29 04:29:24;;;;;;;;;;;;;;;;;;5033623;28;20326;-59
2022/03/29 04:31:52;;;;;;;;;;;;;;;;;;5033757;28;19909;-59
2022/03/29 04:34:18;;;;;;;;;;;;;;;;;;5033402;28;19905;-59
2022/03/29 04:36:43;;;;;;;;;;;;;;;;;;5033280;28;20011;-59
2022/03/29 04:39:09;;;;;;;;;;;;;;;;;;5033225;28;19909;-59
2022/03/29 04:41:35;;;;;;;;;;;;;;;;;;5033146;28;20386;-59
2022/03/29 04:44:01;;;;;;;;;;;;;;;;;;5032975;28;20003;-59
2022/03/29 04:46:27;;;;;;;;;;;;;;;;;;5033050;28;19905;-59
2022/03/29 04:48:53;;;;;;;;;;;;;;;;;;5033284;28;19919;-59
2022/03/29 04:51:19;;;;;;;;;;;;;;;;;;5031769;28;20004;-59
2022/03/29 04:53:45;;;;;;;;;;;;;;;;;;5032957;28;19912;-59
2022/03/29 04:56:10;;;;;;;;;;;;;;;;;;5032964;28;19912;-59
2022/03/29 04:58:36;;;;;;;;;;;;;;;;;;5032895;28;19991;-57
2022/03/29 05:01:04;;;;;;;;;;;;;;;;;;5032795;28;19905;-59
2022/03/29 05:03:30;;;;;;;;;;;;;;;;;;5032749;28;20303;-59
2022/03/29 05:05:55;;;;;;;;;;;;;;;;;;5032854;28;19912;-59
2022/03/29 05:08:21;;;;;;;;;;;;;;;;;;5032748;28;19931;-60
2022/03/29 05:10:47;;;;;;;;;;;;;;;;;;5032944;28;19909;-59
2022/03/29 05:13:13;;;;;;;;;;;;;;;;;;5033031;28;19951;-59
2022/03/29 05:15:39;;;;;;;;;;;;;;;;;;5032942;28;19905;-59
2022/03/29 05:18:05;;;;;;;;;;;;;;;;;;5032733;28;20023;-59
2022/03/29 05:20:31;;;;;;;;;;;;;;;;;;5032637;28;19972;-59
2022/03/29 05:22:57;;;;;;;;;;;;;;;;;;5032880;28;19905;-59
2022/03/29 05:25:23;;;;;;;;;;;;;;;;;;5032701;28;20375;-59
2022/03/29 05:27:49;;;;;;;;;;;;;;;;;;5032841;28;19905;-59
2022/03/29 05:30:15;;;;;;;;;;;;;;;;;;5032589;28;19944;-58
2022/03/29 05:32:41;;;;;;;;;;;;;;;;;;5032480;28;20287;-58
2022/03/29 05:35:08;;;;;;;;;;;;;;;;;;5032538;28;19959;-59
2022/03/29 05:37:33;;;;;;;;;;;;;;;;;;5032512;28;19931;-58
2022/03/29 05:40:00;;;;;;;;;;;;;;;;;;5032428;28;19920;-58
2022/03/29 05:42:26;;;;;;;;;;;;;;;;;;5032583;28;19905;-59
2022/03/29 05:44:51;;;;;;;;;;;;;;;;;;5032456;28;20334;-59
2022/03/29 05:50:02;;;;;;;;;;;;;;;;;;5032569;28;20287;-59
2022/03/29 05:52:29;;;;;;;;;;;;;;;;;;5032471;28;19905;-58
2022/03/29 05:54:54;;;;;;;;;;;;;;;;;;5033354;28;19905;-59
2022/03/29 05:57:20;;;;;;;;;;;;;;;;;;5036267;28;19916;-59
2022/03/29 05:59:46;;;;;;;;;;;;;;;;;;5036051;28;20000;-58
2022/03/29 06:02:12;;;;;;;;;;;;;;;;;;5035652;28;19917;-59
2022/03/29 06:04:39;;;;;;;;;;;;;;;;;;5036228;28;19954;-62
2022/03/29 06:07:05;;;;;;;;;;;;;;;;;;5036225;28;20007;-59
2022/03/29 06:09:31;;;;;;;;;;;;;;;;;;5036593;28;20012;-59
2022/03/29 06:11:57;;;;;;;;;;;;;;;;;;5036351;28;20400;-59
2022/03/29 06:14:23;;;;;;;;;;;;;;;;;;5035940;28;19912;-59
2022/03/29 06:16:49;;;;;;;;;;;;;;;;;;5035860;28;19948;-59
2022/03/29 06:19:14;;;;;;;;;;;;;;;;;;5035886;28;19905;-60
2022/03/29 06:21:40;;;;;;;;;;;;;;;;;;5035884;28;19970;-60
2022/03/29 06:24:06;;;;;;;;;;;;;;;;;;5035842;28;19975;-59
2022/03/29 06:26:33;;;;;;;;;;;;;;;;;;5036013;28;19995;-59
2022/03/29 06:28:59;;;;;;;;;;;;;;;;;;5035886;28;19913;-60
2022/03/29 06:31:25;;;;;;;;;;;;;;;;;;5035718;28;19959;-60
2022/03/29 06:33:50;;;;;;;;;;;;;;;;;;5035651;28;19909;-60
2022/03/29 06:36:17;;;;;;;;;;;;;;;;;;5035657;28;19905;-63
2022/03/29 06:38:44;;;;;;;;;;;;;;;;;;5035774;28;19905;-62
2022/03/29 06:41:10;;;;;;;;;;;;;;;;;;5035397;28;19916;-61
2022/03/29 06:43:36;;;;;;;;;;;;;;;;;;5035422;28;20287;-61
2022/03/29 06:46:03;;;;;;;;;;;;;;;;;;5035347;28;19928;-61
2022/03/29 06:48:29;;;;;;;;;;;;;;;;;;5035622;28;19956;-62
2022/03/29 06:50:55;;;;;;;;;;;;;;;;;;5035250;28;20387;-62
2022/03/29 06:53:21;;;;;;;;;;;;;;;;;;5035280;28;19904;-63
2022/03/29 06:55:47;;;;;;;;;;;;;;;;;;5035087;28;19919;-62
2022/03/29 06:58:13;;;;;;;;;;;;;;;;;;5035140;28;19905;-62
2022/03/29 07:00:39;;;;;;;;;;;;;;;;;;5035308;28;19911;-63
2022/03/29 07:03:05;;;;;;;;;;;;;;;;;;5034807;28;20314;-62
2022/03/29 07:05:31;;;;;;;;;;;;;;;;;;5035324;28;20000;-62
2022/03/29 07:07:57;;;;;;;;;;;;;;;;;;5033736;28;20347;-62
2022/03/29 07:13:08;;;;;;;;;;;;;;;;;;5034988;28;19920;-61
2022/03/29 07:15:33;;;;;;;;;;;;;;;;;;5034804;28;19905;-61
2022/03/29 07:17:59;;;;;;;;;;;;;;;;;;5034832;28;19909;-62
2022/03/29 07:20:25;;;;;;;;;;;;;;;;;;5035047;28;19909;-62
2022/03/29 07:22:51;;;;;;;;;;;;;;;;;;5034750;28;20394;-62
2022/03/29 07:25:20;;;;;;;;;;;;;;;;;;5034830;28;19995;-62
2022/03/29 07:27:46;;;;;;;;;;;;;;;;;;5034483;28;19959;-62
2022/03/29 07:30:12;;;;;;;;;;;;;;;;;;5034487;28;19984;-62
2022/03/29 07:32:38;;;;;;;;;;;;;;;;;;5034512;28;20414;-62
2022/03/29 07:35:04;;;;;;;;;;;;;;;;;;5034393;28;19909;-62
2022/03/29 07:37:29;;;;;;;;;;;;;;;;;;5034535;28;19909;-62
2022/03/29 07:39:56;;;;;;;;;;;;;;;;;;5034357;28;20051;-62
2022/03/29 07:42:22;;;;;;;;;;;;;;;;;;5034555;28;19905;-62
2022/03/29 07:44:50;;;;;;;;;;;;;;;;;;5034496;28;19928;-62
2022/03/29 07:47:15;;;;;;;;;;;;;;;;;;5034447;28;19905;-62
2022/03/29 07:49:43;;;;;;;;;;;;;;;;;;5034062;28;20272;-62
2022/03/29 07:52:09;;;;;;;;;;;;;;;;;;5034126;28;19905;-62
2022/03/29 07:54:35;;;;;;;;;;;;;;;;;;5034244;28;20363;-62
2022/03/29 07:57:01;;;;;;;;;;;;;;;;;;5034120;28;19987;-62
2022/03/29 07:59:27;;;;;;;;;;;;;;;;;;5034051;28;20374;-62
2022/03/29 08:01:54;;;;;;;;;;;;;;;;;;5033695;28;19912;-61
2022/03/29 08:04:21;;;;;;;;;;;;;;;;;;5034036;28;19917;-62
2022/03/29 08:06:46;;;;;;;;;;;;;;;;;;5033917;28;20279;-62
2022/03/29 08:09:14;;;;;;;;;;;;;;;;;;5033703;28;19913;-62
2022/03/29 08:11:40;;;;;;;;;;;;;;;;;;5033758;28;19908;-62
2022/03/29 08:14:06;;;;;;;;;;;;;;;;;;5033893;28;19949;-62
2022/03/29 08:16:33;;;;;;;;;;;;;;;;;;5033703;28;19905;-62
2022/03/29 08:18:59;;;;;;;;;;;;;;;;;;5033766;28;19928;-61
2022/03/29 08:24:10;;;;;;;;;;;;;;;;;;5033605;28;19920;-63
2022/03/29 08:26:36;;;;;;;;;;;;;;;;;;5033410;28;20282;-62
2022/03/29 08:29:01;;;;;;;;;;;;;;;;;;5033337;28;19913;-62
2022/03/29 08:31:27;;;;;;;;;;;;;;;;;;5033305;28;20360;-62
2022/03/29 08:33:53;;;;;;;;;;;;;;;;;;5033352;28;19947;-62
2022/03/29 08:36:19;;;;;;;;;;;;;;;;;;5033219;28;19984;-62
2022/03/29 08:38:45;;;;;;;;;;;;;;;;;;5033235;28;19905;-62
2022/03/29 08:41:11;;;;;;;;;;;;;;;;;;5033418;28;20122;-63
2022/03/29 08:43:37;;;;;;;;;;;;;;;;;;5033132;28;20000;-63
2022/03/29 08:46:02;;;;;;;;;;;;;;;;;;5033216;28;19909;-63
2022/03/29 08:48:28;;;;;;;;;;;;;;;;;;5032975;28;19960;-63
2022/03/29 08:50:54;;;;;;;;;;;;;;;;;;5033020;28;19909;-63
2022/03/29 08:53:20;;;;;;;;;;;;;;;;;;5032841;28;19924;-47
2022/03/29 08:55:47;;;;;;;;;;;;;;;;;;5032986;28;20016;-47
2022/03/29 08:58:12;;;;;;;;;;;;;;;;;;5032927;28;19905;-47
2022/03/29 09:00:38;;;;;;;;;;;;;;;;;;5032870;28;19905;-47
2022/03/29 09:03:04;;;;;;;;;;;;;;;;;;5032626;28;20019;-48
2022/03/29 09:05:30;;;;;;;;;;;;;;;;;;5033181;28;20003;-48
2022/03/29 09:07:56;;;;;;;;;;;;;;;;;;5032783;28;20375;-48
2022/03/29 09:10:22;;;;;;;;;;;;;;;;;;5033101;28;19992;-50
2022/03/29 09:12:48;;;;;;;;;;;;;;;;;;5032814;28;19905;-49
2022/03/29 09:15:14;;;;;;;;;;;;;;;;;;5032725;28;19912;-48
2022/03/29 09:17:40;;;;;;;;;;;;;;;;;;5032649;28;19909;-48
2022/03/29 09:20:06;;;;;;;;;;;;;;;;;;5032637;28;19909;-47
2022/03/29 09:22:31;;;;;;;;;;;;;;;;;;5032273;28;19905;-47
2022/03/29 09:24:58;;;;;;;;;;;;;;;;;;5032265;28;20442;-47
2022/03/29 09:27:24;;;;;;;;;;;;;;;;;;5032519;28;20395;-49
2022/03/29 09:29:50;;;;;;;;;;;;;;;;;;5031839;28;20008;-64
2022/03/29 09:32:17;;;;;;;;;;;;;;;;;;5036724;28;20342;-64
2022/03/29 09:34:44;;;;;;;;;;;;;;;;;;5036686;28;20425;-64
2022/03/29 09:37:10;;;;;;;;;;;;;;;;;;5036965;28;20019;-63
2022/03/29 09:39:36;;;;;;;;;;;;;;;;;;5036545;28;19905;-63
2022/03/29 09:42:02;;;;;;;;;;;;;;;;;;5036585;28;19912;-64
2022/03/29 09:44:27;;;;;;;;;;;;;;;;;;5036643;28;19912;-63
2022/03/29 09:46:54;;;;;;;;;;;;;;;;;;5036514;28;19984;-64
2022/03/29 09:49:22;;;;;;;;;;;;;;;;;;5036669;28;20043;-63
2022/03/29 09:51:48;;;;;;;;;;;;;;;;;;5036406;28;19905;-63
2022/03/29 09:54:14;;;;;;;;;;;;;;;;;;5036443;28;19919;-63
2022/03/29 09:56:40;;;;;;;;;;;;;;;;;;5036363;28;20348;-63
2022/03/29 09:59:06;;;;;;;;;;;;;;;;;;5036287;28;19905;-63
2022/03/29 10:01:32;;;;;;;;;;;;;;;;;;5036113;28;19905;-63
2022/03/29 10:03:58;;;;;;;;;;;;;;;;;;5036086;28;19917;-63
2022/03/29 10:06:24;;;;;;;;;;;;;;;;;;5035965;28;19905;-63
2022/03/29 10:11:35;;;;;;;;;;;;;;;;;;5036055;28;20096;-63
2022/03/29 10:14:02;;;;;;;;;;;;;;;;;;5035958;28;20007;-63
2022/03/29 10:16:28;;;;;;;;;;;;;;;;;;5035958;28;19905;-63
2022/03/29 10:18:54;;;;;;;;;;;;;;;;;;5035827;28;20256;-63
2022/03/29 10:21:20;;;;;;;;;;;;;;;;;;5035741;28;19920;-63
2022/03/29 10:23:46;;;;;;;;;;;;;;;;;;5035693;28;20286;-48
2022/03/29 10:26:12;;;;;;;;;;;;;;;;;;5035730;28;19905;-48
2022/03/29 10:28:38;;;;;;;;;;;;;;;;;;5035447;28;19913;-48
2022/03/29 10:31:03;;;;;;;;;;;;;;;;;;5035354;28;19916;-47
2022/03/29 10:33:33;;;;;;;;;;;;;;;;;;5035343;28;19912;-48
2022/03/29 10:35:59;;;;;;;;;;;;;;;;;;5035357;28;19905;-46
2022/03/29 10:38:25;;;;;;;;;;;;;;;;;;5035213;28;19913;-48
2022/03/29 10:40:50;;;;;;;;;;;;;;;;;;5034930;28;19909;-49
2022/03/29 10:43:16;;;;;;;;;;;;;;;;;;5035264;28;20377;-49
2022/03/29 10:45:42;;;;;;;;;;;;;;;;;;5035330;28;19909;-47
2022/03/29 10:48:09;;;;;;;;;;;;;;;;;;5035283;28;19970;-47
2022/03/29 10:50:35;;;;;;;;;;;;;;;;;;5035382;28;19905;-48
2022/03/29 10:53:01;;;;;;;;;;;;;;;;;;5035035;28;19920;-49
2022/03/29 10:55:30;;;;;;;;;;;;;;;;;;5035082;28;19912;-48
2022/03/29 10:57:56;;;;;;;;;;;;;;;;;;5034990;28;20405;-47
2022/03/29 11:00:22;;;;;;;;;;;;;;;;;;5034953;28;19909;-47
2022/03/29 11:02:48;;;;;;;;;;;;;;;;;;5033530;28;20372;-47
2022/03/29 11:05:14;;;;;;;;;;;;;;;;;;5034937;28;19905;-48
2022/03/29 11:07:41;;;;;;;;;;;;;;;;;;5034972;28;19986;-48
2022/03/29 11:10:09;;;;;;;;;;;;;;;;;;5035330;28;19913;-47
2022/03/29 11:12:34;;;;;;;;;;;;;;;;;;5034847;28;19909;-48
2022/03/29 11:15:00;;;;;;;;;;;;;;;;;;5034814;28;20395;-48
2022/03/29 11:17:28;;;;;;;;;;;;;;;;;;5034897;28;19995;-47
2022/03/29 11:19:56;;;;;;;;;;;;;;;;;;5034824;28;19991;-47
2022/03/29 11:22:22;;;;;;;;;;;;;;;;;;5034708;28;19919;-46
2022/03/29 11:24:48;;;;;;;;;;;;;;;;;;5034728;28;20256;-46
2022/03/29 11:27:13;;;;;;;;;;;;;;;;;;5034651;28;19992;-48
2022/03/29 11:29:39;;;;;;;;;;;;;;;;;;5034521;28;19913;-47
2022/03/29 11:32:05;;;;;;;;;;;;;;;;;;5034794;28;20355;-48
2022/03/29 11:34:31;;;;;;;;;;;;;;;;;;5034539;28;19909;-47
2022/03/29 11:36:57;;;;;;;;;;;;;;;;;;5034500;28;19987;-47
2022/03/29 11:39:23;;;;;;;;;;;;;;;;;;5034341;28;19912;-47
2022/03/29 11:41:49;;;;;;;;;;;;;;;;;;5034586;28;19905;-48
2022/03/29 11:44:15;;;;;;;;;;;;;;;;;;5034316;28;19905;-47
2022/03/29 11:46:42;;;;;;;;;;;;;;;;;;5034282;28;19912;-48
2022/03/29 11:49:08;;;;;;;;;;;;;;;;;;5034113;28;20005;-48
2022/03/29 11:51:34;;;;;;;;;;;;;;;;;;5034448;28;20067;-47
2022/03/29 11:54:00;;;;;;;;;;;;;;;;;;5033361;28;19909;-47
2022/03/29 11:56:26;;;;;;;;;;;;;;;;;;5034065;28;19967;-47
2022/03/29 11:58:51;;;;;;;;;;;;;;;;;;5034134;28;19940;-47
2022/03/29 12:01:18;;;;;;;;;;;;;;;;;;5034137;28;20274;-47
2022/03/29 12:03:44;;;;;;;;;;;;;;;;;;5033843;28;19917;-47
2022/03/29 12:06:11;;;;;;;;;;;;;;;;;;5034201;28;19909;-47
2022/03/29 12:08:37;;;;;;;;;;;;;;;;;;5033861;28;19917;-47
2022/03/29 12:11:03;;;;;;;;;;;;;;;;;;5033881;28;19951;-48
2022/03/29 12:13:29;;;;;;;;;;;;;;;;;;5033858;28;19905;-47
2022/03/29 12:15:55;;;;;;;;;;;;;;;;;;5033675;28;19905;-47
2022/03/29 12:18:54;;;;;;;;;;;;;;;;;;5033931;28;19932;-47
2022/03/29 12:21:13;;;;;;;;;;;;;;;;;;5030728;28;19912;-47
2022/03/29 12:23:39;;;;;;;;;;;;;;;;;;5033581;28;19912;-47
2022/03/29 12:26:05;;;;;;;;;;;;;;;;;;5033549;28;19905;-47
2022/03/29 12:28:31;;;;;;;;;;;;;;;;;;5032133;28;20344;-48
2022/03/29 12:30:58;;;;;;;;;;;;;;;;;;5033603;28;19912;-46
2022/03/29 12:33:23;;;;;;;;;;;;;;;;;;5033498;28;20287;-48
2022/03/29 12:35:50;;;;;;;;;;;;;;;;;;5033339;28;19909;-48
2022/03/29 12:38:16;;;;;;;;;;;;;;;;;;5033266;28;19968;-48
2022/03/29 12:40:42;;;;;;;;;;;;;;;;;;5033242;28;20375;-47
2022/03/29 12:43:07;;;;;;;;;;;;;;;;;;5033321;28;20322;-48
2022/03/29 12:45:33;;;;;;;;;;;;;;;;;;5033153;28;19905;-49
2022/03/29 12:47:59;;;;;;;;;;;;;;;;;;5033114;28;19905;-47
2022/03/29 12:50:25;;;;;;;;;;;;;;;;;;5033522;28;19923;-61
2022/03/29 12:52:51;;;;;;;;;;;;;;;;;;5033452;28;19909;-62
2022/03/29 12:55:21;;;;;;;;;;;;;;;;;;5033130;28;20417;-61
2022/03/29 12:57:47;;;;;;;;;;;;;;;;;;5033041;28;19996;-61
2022/03/29 13:00:14;;;;;;;;;;;;;;;;;;5032967;28;19924;-61
2022/03/29 13:02:43;;;;;;;;;;;;;;;;;;5032764;28;19912;-61
2022/03/29 13:05:09;;;;;;;;;;;;;;;;;;5033132;28;20000;-62
2022/03/29 13:07:39;;;;;;;;;;;;;;;;;;5033065;28;20378;-61
2022/03/29 13:10:05;;;;;;;;;;;;;;;;;;5033381;28;19913;-47
2022/03/29 13:12:31;;;;;;;;;;;;;;;;;;5032792;28;20275;-47
2022/03/29 13:14:57;;;;;;;;;;;;;;;;;;5032747;28;19905;-47
2022/03/29 13:17:23;;;;;;;;;;;;;;;;;;5032804;28;19955;-47
2022/03/29 13:19:51;;;;;;;;;;;;;;;;;;5032712;28;19911;-47
2022/03/29 13:22:17;;;;;;;;;;;;;;;;;;5032963;28;20265;-47
2022/03/29 13:24:43;;;;;;;;;;;;;;;;;;5032760;28;19987;-47
2022/03/29 13:27:09;;;;;;;;;;;;;;;;;;5032991;28;20339;-47
2022/03/29 13:29:36;;;;;;;;;;;;;;;;;;5032544;28;19956;-47
2022/03/29 13:32:02;;;;;;;;;;;;;;;;;;5032787;28;19932;-48
2022/03/29 13:34:27;;;;;;;;;;;;;;;;;;5032623;28;19904;-47
2022/03/29 13:36:53;;;;;;;;;;;;;;;;;;5032739;28;19927;-47
2022/03/29 13:39:19;;;;;;;;;;;;;;;;;;5032734;28;19911;-47
2022/03/29 13:41:45;;;;;;;;;;;;;;;;;;5032472;28;19999;-47
2022/03/29 13:44:12;;;;;;;;;;;;;;;;;;5032515;28;19912;-47
2022/03/29 13:46:38;;;;;;;;;;;;;;;;;;5032824;28;20159;-47
2022/03/29 13:49:04;;;;;;;;;;;;;;;;;;5032437;28;20313;-47
2022/03/29 13:51:30;;;;;;;;;;;;;;;;;;5032654;28;19909;-47
2022/03/29 13:53:56;;;;;;;;;;;;;;;;;;5032660;28;19909;-46
2022/03/29 13:56:23;;;;;;;;;;;;;;;;;;5032387;28;20291;-47
2022/03/29 13:58:50;;;;;;;;;;;;;;;;;;5032319;28;19952;-48
2022/03/29 14:01:15;;;;;;;;;;;;;;;;;;5032217;28;20000;-47
2022/03/29 14:03:41;;;;;;;;;;;;;;;;;;5032229;28;20340;-48
2022/03/29 14:06:07;;;;;;;;;;;;;;;;;;5032324;28;19959;-47
2022/03/29 14:08:33;;;;;;;;;;;;;;;;;;5032098;28;19909;-47
2022/03/29 14:10:59;;;;;;;;;;;;;;;;;;5032253;28;19963;-47
2022/03/29 14:13:27;;;;;;;;;;;;;;;;;;5032194;28;19905;-47
2022/03/29 14:15:53;;;;;;;;;;;;;;;;;;5032745;28;20422;-48
2022/03/29 14:18:21;;;;;;;;;;;;;;;;;;5035776;28;19992;-48
2022/03/29 14:20:47;;;;;;;;;;;;;;;;;;5035746;28;19944;-48
2022/03/29 14:23:13;;;;;;;;;;;;;;;;;;5035966;28;20390;-47
2022/03/29 14:25:39;;;;;;;;;;;;;;;;;;5035972;28;19905;-47
2022/03/29 14:28:05;;;;;;;;;;;;;;;;;;5035483;28;20385;-47
2022/03/29 14:30:30;;;;;;;;;;;;;;;;;;5035598;28;19920;-48
2022/03/29 14:32:56;;;;;;;;;;;;;;;;;;5035756;28;20360;-46
2022/03/29 14:35:22;;;;;;;;;;;;;;;;;;5035352;28;19912;-47
2022/03/29 14:37:48;;;;;;;;;;;;;;;;;;5035740;28;20342;-48
2022/03/29 14:40:14;;;;;;;;;;;;;;;;;;5035854;28;20426;-47
2022/03/29 14:42:40;;;;;;;;;;;;;;;;;;5035798;28;19909;-46
2022/03/29 14:45:06;;;;;;;;;;;;;;;;;;5035408;28;19951;-48
2022/03/29 14:47:33;;;;;;;;;;;;;;;;;;5035318;28;19905;-48
2022/03/29 14:49:59;;;;;;;;;;;;;;;;;;5035193;28;19967;-47
2022/03/29 14:52:25;;;;;;;;;;;;;;;;;;5035292;28;19905;-48
2022/03/29 14:54:51;;;;;;;;;;;;;;;;;;5035202;28;19905;-46
2022/03/29 14:57:17;;;;;;;;;;;;;;;;;;5035180;28;19988;-48
2022/03/29 14:59:43;;;;;;;;;;;;;;;;;;5035211;28;19912;-58
2022/03/29 15:02:09;;;;;;;;;;;;;;;;;;5034759;28;19924;-60
2022/03/29 15:04:36;;;;;;;;;;;;;;;;;;5034996;28;19972;-59
2022/03/29 15:07:01;;;;;;;;;;;;;;;;;;5034918;28;19905;-59
2022/03/29 15:09:27;;;;;;;;;;;;;;;;;;5034781;28;19913;-59
2022/03/29 15:11:53;;;;;;;;;;;;;;;;;;5034736;28;19905;-59
2022/03/29 15:14:19;;;;;;;;;;;;;;;;;;5035059;28;19905;-59
2022/03/29 15:16:45;;;;;;;;;;;;;;;;;;5034847;28;19905;-59
2022/03/29 15:19:11;;;;;;;;;;;;;;;;;;5034630;28;19905;-60
2022/03/29 15:21:37;;;;;;;;;;;;;;;;;;5034635;28;19905;-59
2022/03/29 15:24:03;;;;;;;;;;;;;;;;;;5034433;28;20371;-59
2022/03/29 15:26:29;;;;;;;;;;;;;;;;;;5034541;28;19919;-59
2022/03/29 15:28:55;;;;;;;;;;;;;;;;;;5033559;28;19909;-58
2022/03/29 15:31:21;;;;;;;;;;;;;;;;;;5034470;28;19996;-59
2022/03/29 15:33:47;;;;;;;;;;;;;;;;;;5034704;28;19913;-59
2022/03/29 15:36:13;;;;;;;;;;;;;;;;;;5034508;28;19936;-58
2022/03/29 15:38:39;;;;;;;;;;;;;;;;;;5034313;28;19940;-58
2022/03/29 15:41:04;;;;;;;;;;;;;;;;;;5034094;28;19905;-58
2022/03/29 15:43:30;;;;;;;;;;;;;;;;;;5034146;28;19958;-59
2022/03/29 15:45:56;;;;;;;;;;;;;;;;;;5034373;28;19905;-58
2022/03/29 15:48:22;;;;;;;;;;;;;;;;;;5034106;28;19936;-58
2022/03/29 15:50:48;;;;;;;;;;;;;;;;;;5034331;28;19963;-59
2022/03/29 15:53:15;;;;;;;;;;;;;;;;;;5033965;28;20429;-59
2022/03/29 15:55:46;;;;;;;;;;;;;;;;;;5034649;28;19905;-47
2022/03/29 15:58:11;;;;;;;;;;;;;;;;;;5033909;28;20271;-47
2022/03/29 16:00:37;;;;;;;;;;;;;;;;;;5034200;28;19905;-46
2022/03/29 16:03:03;;;;;;;;;;;;;;;;;;5033617;28;19917;-46
2022/03/29 16:05:29;;;;;;;;;;;;;;;;;;5033788;28;19959;-47
2022/03/29 16:07:55;;;;;;;;;;;;;;;;;;5033681;28;19905;-46
2022/03/29 16:10:21;;;;;;;;;;;;;;;;;;5033599;28;20318;-47
2022/03/29 16:12:47;;;;;;;;;;;;;;;;;;5033710;28;19904;-47
2022/03/29 16:15:13;;;;;;;;;;;;;;;;;;5033916;28;19948;-46
2022/03/29 16:17:38;;;;;;;;;;;;;;;;;;5033597;28;19912;-48
2022/03/29 16:20:04;;;;;;;;;;;;;;;;;;5033564;28;19905;-46
2022/03/29 16:22:30;;;;;;;;;;;;;;;;;;5033464;28;19909;-47
2022/03/29 16:24:56;;;;;;;;;;;;;;;;;;5033414;28;20062;-46
2022/03/29 16:27:22;;;;;;;;;;;;;;;;;;5033676;28;19905;-46
2022/03/29 16:29:48;;;;;;;;;;;;;;;;;;5033293;28;19920;-48
2022/03/29 16:32:14;;;;;;;;;;;;;;;;;;5033259;28;19909;-47
2022/03/29 16:34:40;;;;;;;;;;;;;;;;;;5033115;28;19909;-46
2022/03/29 16:37:06;;;;;;;;;;;;;;;;;;5033190;28;19905;-46
2022/03/29 16:39:32;;;;;;;;;;;;;;;;;;5032891;28;20391;-47
2022/03/29 16:41:57;;;;;;;;;;;;;;;;;;5033166;28;19952;-46
2022/03/29 16:44:23;;;;;;;;;;;;;;;;;;5033014;28;19988;-47
2022/03/29 16:46:49;;;;;;;;;;;;;;;;;;5033315;28;19905;-47
2022/03/29 16:49:19;;;;;;;;;;;;;;;;;;5033252;28;19913;-46
2022/03/29 16:51:44;;;;;;;;;;;;;;;;;;5033159;28;19905;-47